createdAt,value
2018-06-24T00:00:07.132Z,14.16
2018-06-24T00:02:36.091Z,14.19
2018-06-24T00:05:09.456Z,14.20
2018-06-24T00:07:38.803Z,14.19
2018-06-24T00:10:07.847Z,14.09
2018-06-24T00:12:37.563Z,14.06
2018-06-24T00:15:10.324Z,14.04
2018-06-24T00:17:39.563Z,14.17
2018-06-24T00:20:09.259Z,14.10
2018-06-24T00:22:38.364Z,14.18
2018-06-24T00:25:09.521Z,14.18
2018-06-24T00:27:38.863Z,14.24
2018-06-24T00:30:07.852Z,14.18
2018-06-24T00:32:36.998Z,14.21
2018-06-24T00:35:07.915Z,14.03
2018-06-24T00:37:37.779Z,13.90
2018-06-24T00:40:06.739Z,13.85
2018-06-24T00:42:35.683Z,13.98
2018-06-24T00:45:08.251Z,13.88
2018-06-24T00:47:37.354Z,13.89
2018-06-24T00:50:06.909Z,13.84
2018-06-24T00:52:37.313Z,13.84
2018-06-24T00:55:09.810Z,13.90
2018-06-24T00:57:39.449Z,13.68
2018-06-24T01:00:12.819Z,13.75
2018-06-24T01:02:42.314Z,13.85
2018-06-24T01:05:13.054Z,13.80
2018-06-24T01:07:43.802Z,13.81
2018-06-24T01:10:13.108Z,13.87
2018-06-24T01:12:42.612Z,13.93
2018-06-24T01:15:12.107Z,13.81
2018-06-24T01:17:42.024Z,13.94
2018-06-24T01:20:10.998Z,13.80
2018-06-24T01:22:40.158Z,13.83
2018-06-24T01:25:12.686Z,13.97
2018-06-24T01:27:42.405Z,13.91
2018-06-24T01:30:11.460Z,13.88
2018-06-24T01:32:40.534Z,13.84
2018-06-24T01:35:11.494Z,13.91
2018-06-24T01:37:40.444Z,13.89
2018-06-24T01:40:09.481Z,13.78
2018-06-24T01:42:38.594Z,13.87
2018-06-24T01:45:12.080Z,13.80
2018-06-24T01:47:41.004Z,13.76
2018-06-24T01:50:10.267Z,13.95
2018-06-24T01:52:40.396Z,13.80
2018-06-24T01:55:15.775Z,13.84
2018-06-24T01:57:45.004Z,13.82
2018-06-24T02:00:14.342Z,13.79
2018-06-24T02:02:43.429Z,13.82
2018-06-24T02:05:12.508Z,13.85
2018-06-24T02:07:41.942Z,13.87
2018-06-24T02:10:11.478Z,13.76
2018-06-24T02:12:43.829Z,13.83
2018-06-24T02:15:15.028Z,13.78
2018-06-24T02:17:44.225Z,13.70
2018-06-24T02:20:13.233Z,13.60
2018-06-24T02:22:42.431Z,13.60
2018-06-24T02:25:14.276Z,13.73
2018-06-24T02:27:43.394Z,13.61
2018-06-24T02:30:12.690Z,13.60
2018-06-24T02:32:41.758Z,13.72
2018-06-24T02:35:13.657Z,13.84
2018-06-24T02:37:43.892Z,13.82
2018-06-24T02:40:13.063Z,13.70
2018-06-24T02:42:42.142Z,13.73
2018-06-24T02:45:12.836Z,13.69
2018-06-24T02:47:41.791Z,13.57
2018-06-24T02:50:10.982Z,13.54
2018-06-24T02:52:40.046Z,13.75
2018-06-24T02:55:13.987Z,13.76
2018-06-24T02:57:43.208Z,13.85
2018-06-24T03:00:12.303Z,13.84
2018-06-24T03:02:41.596Z,13.76
2018-06-24T03:05:14.220Z,13.70
2018-06-24T03:07:43.586Z,13.85
2018-06-24T03:10:12.853Z,13.82
2018-06-24T03:12:42.382Z,13.73
2018-06-24T03:15:13.563Z,13.81
2018-06-24T03:17:43.150Z,13.79
2018-06-24T03:20:12.847Z,13.86
2018-06-24T03:22:41.905Z,13.80
2018-06-24T03:25:14.575Z,13.55
2018-06-24T03:27:44.249Z,13.40
2018-06-24T03:30:13.472Z,13.53
2018-06-24T03:32:42.426Z,13.65
2018-06-24T03:35:13.927Z,13.45
2018-06-24T03:37:43.865Z,13.57
2018-06-24T03:40:13.339Z,13.60
2018-06-24T03:42:42.444Z,13.65
2018-06-24T03:45:13.848Z,13.56
2018-06-24T03:47:42.918Z,13.45
2018-06-24T03:50:11.966Z,13.35
2018-06-24T03:52:41.088Z,13.37
2018-06-24T03:55:13.123Z,13.38
2018-06-24T03:57:42.247Z,13.44
2018-06-24T04:00:11.389Z,13.50
2018-06-24T04:02:40.846Z,13.38
2018-06-24T04:05:14.178Z,13.32
2018-06-24T04:07:43.701Z,13.23
2018-06-24T04:10:13.149Z,13.32
2018-06-24T04:12:42.685Z,13.37
2018-06-24T04:15:14.441Z,13.49
2018-06-24T04:17:43.638Z,13.64
2018-06-24T04:20:12.610Z,13.59
2018-06-24T04:22:41.687Z,13.49
2018-06-24T04:25:14.386Z,13.63
2018-06-24T04:27:43.334Z,13.72
2018-06-24T04:30:12.577Z,13.71
2018-06-24T04:32:41.689Z,13.75
2018-06-24T04:35:12.019Z,13.72
2018-06-24T04:37:41.070Z,13.64
2018-06-24T04:40:10.165Z,13.65
2018-06-24T04:42:39.261Z,13.60
2018-06-24T04:45:12.629Z,13.63
2018-06-24T04:47:42.384Z,13.69
2018-06-24T04:50:11.461Z,13.94
2018-06-24T04:52:40.410Z,14.24
2018-06-24T04:55:14.254Z,14.18
2018-06-24T04:57:43.672Z,14.06
2018-06-24T05:00:12.766Z,14.14
2018-06-24T05:02:41.857Z,14.22
2018-06-24T05:05:16.704Z,14.24
2018-06-24T05:07:45.895Z,14.12
2018-06-24T05:10:14.964Z,14.17
2018-06-24T05:12:44.076Z,14.24
2018-06-24T05:15:13.389Z,14.34
2018-06-24T05:17:42.484Z,14.55
2018-06-24T05:20:11.835Z,14.66
2018-06-24T05:22:40.866Z,14.64
2018-06-24T05:25:12.663Z,14.98
2018-06-24T05:27:42.263Z,15.47
2018-06-24T05:30:12.778Z,15.68
2018-06-24T05:32:42.478Z,15.62
2018-06-24T05:35:11.745Z,15.75
2018-06-24T05:37:40.899Z,15.68
2018-06-24T05:40:09.935Z,15.45
2018-06-24T05:42:38.898Z,15.70
2018-06-24T05:45:08.044Z,15.65
2018-06-24T05:47:37.354Z,15.34
2018-06-24T05:50:06.657Z,15.29
2018-06-24T05:52:35.761Z,15.38
2018-06-24T05:55:08.545Z,15.50
2018-06-24T05:57:37.870Z,15.46
2018-06-24T06:00:08.864Z,15.37
2018-06-24T06:02:38.705Z,15.44
2018-06-24T06:05:08.902Z,15.50
2018-06-24T06:07:38.324Z,15.33
2018-06-24T06:10:07.668Z,15.51
2018-06-24T06:12:36.923Z,15.40
2018-06-24T06:15:07.576Z,15.75
2018-06-24T06:17:36.563Z,15.73
2018-06-24T06:20:07.269Z,15.65
2018-06-24T06:22:36.591Z,16.01
2018-06-24T06:25:09.615Z,15.93
2018-06-24T06:27:39.272Z,15.73
2018-06-24T06:30:08.961Z,15.58
2018-06-24T06:32:38.590Z,15.66
2018-06-24T06:35:08.099Z,15.99
2018-06-24T06:37:37.383Z,15.91
2018-06-24T06:40:07.112Z,15.72
2018-06-24T06:42:36.094Z,15.81
2018-06-24T06:45:09.281Z,16.08
2018-06-24T06:47:38.354Z,16.29
2018-06-24T06:50:08.031Z,16.14
2018-06-24T06:52:37.903Z,15.87
2018-06-24T06:55:07.459Z,15.81
2018-06-24T06:57:36.689Z,16.29
2018-06-24T07:00:06.262Z,16.47
2018-06-24T07:02:35.221Z,16.45
2018-06-24T07:05:05.387Z,16.67
2018-06-24T07:07:41.025Z,16.89
2018-06-24T07:10:10.555Z,16.72
2018-06-24T07:12:39.650Z,16.45
2018-06-24T07:15:09.811Z,16.74
2018-06-24T07:17:38.790Z,16.63
2018-06-24T07:20:08.338Z,16.50
2018-06-24T07:22:37.335Z,16.85
2018-06-24T07:25:08.787Z,16.88
2018-06-24T07:27:40.715Z,16.82
2018-06-24T07:30:09.768Z,17.27
2018-06-24T07:32:39.063Z,17.56
2018-06-24T07:35:12.614Z,17.96
2018-06-24T07:37:41.978Z,18.51
2018-06-24T07:40:11.059Z,18.52
2018-06-24T07:42:40.955Z,18.59
2018-06-24T07:45:13.007Z,18.31
2018-06-24T07:47:42.305Z,18.37
2018-06-24T07:50:11.594Z,18.19
2018-06-24T07:52:41.670Z,18.08
2018-06-24T07:55:14.250Z,18.14
2018-06-24T07:57:43.448Z,18.07
2018-06-24T08:00:12.628Z,17.75
2018-06-24T08:02:42.471Z,17.47
2018-06-24T08:05:11.607Z,18.03
2018-06-24T08:07:40.743Z,18.06
2018-06-24T08:10:10.167Z,18.58
2018-06-24T08:12:39.134Z,18.70
2018-06-24T08:15:08.447Z,18.34
2018-06-24T08:17:37.676Z,18.26
2018-06-24T08:20:08.513Z,18.15
2018-06-24T08:22:37.647Z,18.34
2018-06-24T08:25:07.730Z,18.56
2018-06-24T08:27:37.528Z,18.34
2018-06-24T08:30:08.904Z,18.33
2018-06-24T08:32:37.841Z,18.15
2018-06-24T08:35:07.911Z,18.26
2018-06-24T08:37:37.036Z,18.23
2018-06-24T08:40:09.888Z,18.29
2018-06-24T08:42:40.115Z,18.30
2018-06-24T08:45:10.291Z,18.36
2018-06-24T08:47:39.547Z,18.71
2018-06-24T08:50:08.759Z,18.83
2018-06-24T08:52:38.012Z,18.11
2018-06-24T08:55:07.379Z,18.20
2018-06-24T08:57:36.613Z,18.38
2018-06-24T09:00:08.035Z,18.53
2018-06-24T09:02:37.056Z,18.42
2018-06-24T09:05:06.174Z,18.48
2018-06-24T09:07:35.102Z,18.28
2018-06-24T09:10:09.211Z,18.30
2018-06-24T09:12:38.593Z,18.14
2018-06-24T09:15:08.144Z,18.38
2018-06-24T09:17:37.278Z,18.57
2018-06-24T09:20:07.211Z,18.29
2018-06-24T09:22:36.480Z,18.38
2018-06-24T09:25:05.999Z,18.34
2018-06-24T09:27:35.313Z,18.27
2018-06-24T09:30:07.807Z,18.29
2018-06-24T09:32:37.248Z,18.51
2018-06-24T09:35:06.718Z,18.61
2018-06-24T09:37:35.669Z,18.64
2018-06-24T09:40:06.874Z,18.76
2018-06-24T09:42:36.108Z,18.92
2018-06-24T09:45:05.226Z,18.94
2018-06-24T09:47:34.513Z,18.61
2018-06-24T09:50:07.326Z,18.94
2018-06-24T09:52:37.178Z,19.02
2018-06-24T09:55:06.318Z,19.08
2018-06-24T09:57:35.373Z,19.49
2018-06-24T10:00:12.650Z,19.38
2018-06-24T10:02:41.876Z,19.38
2018-06-24T10:05:11.046Z,19.78
2018-06-24T10:07:40.298Z,19.67
2018-06-24T10:10:09.914Z,19.48
2018-06-24T10:12:39.436Z,20.22
2018-06-24T10:15:09.239Z,20.44
2018-06-24T10:17:38.825Z,20.93
2018-06-24T10:20:08.454Z,20.88
2018-06-24T10:22:37.704Z,21.02
2018-06-24T10:25:06.796Z,21.30
2018-06-24T10:27:35.951Z,21.30
2018-06-24T10:30:09.009Z,20.66
2018-06-24T10:32:38.133Z,20.25
2018-06-24T10:35:08.199Z,19.85
2018-06-24T10:37:37.716Z,20.06
2018-06-24T10:40:07.635Z,20.05
2018-06-24T10:42:36.601Z,20.13
2018-06-24T10:45:06.340Z,20.11
2018-06-24T10:47:35.542Z,19.97
2018-06-24T10:50:08.261Z,21.01
2018-06-24T10:52:37.484Z,21.75
2018-06-24T10:55:06.570Z,22.11
2018-06-24T10:57:35.723Z,22.49
2018-06-24T11:00:09.291Z,22.75
2018-06-24T11:02:38.450Z,23.62
2018-06-24T11:05:07.588Z,22.25
2018-06-24T11:07:37.018Z,23.10
2018-06-24T11:10:07.601Z,22.37
2018-06-24T11:12:36.714Z,21.92
2018-06-24T11:15:06.609Z,21.27
2018-06-24T11:17:36.376Z,21.92
2018-06-24T11:20:08.921Z,21.64
2018-06-24T11:22:38.812Z,21.54
2018-06-24T11:25:07.955Z,21.77
2018-06-24T11:27:37.167Z,21.61
2018-06-24T11:30:07.832Z,21.36
2018-06-24T11:32:37.095Z,21.15
2018-06-24T11:35:06.289Z,20.55
2018-06-24T11:37:35.813Z,20.10
2018-06-24T11:40:08.120Z,20.34
2018-06-24T11:42:37.678Z,20.87
2018-06-24T11:45:12.231Z,20.68
2018-06-24T11:47:41.567Z,20.46
2018-06-24T11:50:10.546Z,20.06
2018-06-24T11:52:39.767Z,19.72
2018-06-24T11:55:09.071Z,19.48
2018-06-24T11:57:45.116Z,19.63
2018-06-24T12:00:15.307Z,19.68
2018-06-24T12:02:44.350Z,20.26
2018-06-24T12:05:14.035Z,20.72
2018-06-24T12:07:43.238Z,20.98
2018-06-24T12:10:12.503Z,21.13
2018-06-24T12:12:41.643Z,20.72
2018-06-24T12:15:11.482Z,21.42
2018-06-24T12:17:40.644Z,21.03
2018-06-24T12:20:09.899Z,21.44
2018-06-24T12:22:39.064Z,21.58
2018-06-24T12:25:08.314Z,22.11
2018-06-24T12:27:37.331Z,22.02
2018-06-24T12:30:08.672Z,22.22
2018-06-24T12:32:38.002Z,21.66
2018-06-24T12:35:07.284Z,21.36
2018-06-24T12:37:36.549Z,21.60
2018-06-24T12:40:07.516Z,21.28
2018-06-24T12:42:36.826Z,21.24
2018-06-24T12:45:06.256Z,21.00
2018-06-24T12:47:35.424Z,20.82
2018-06-24T12:50:07.959Z,21.14
2018-06-24T12:52:37.080Z,21.17
2018-06-24T12:55:06.737Z,21.00
2018-06-24T12:57:35.879Z,20.80
2018-06-24T13:00:09.305Z,20.91
2018-06-24T13:02:38.081Z,20.67
2018-06-24T13:05:07.143Z,21.08
2018-06-24T13:07:36.304Z,21.26
2018-06-24T13:10:09.257Z,21.06
2018-06-24T13:12:38.334Z,21.05
2018-06-24T13:15:08.061Z,21.40
2018-06-24T13:17:37.385Z,21.41
2018-06-24T13:20:07.809Z,21.35
2018-06-24T13:22:36.788Z,21.28
2018-06-24T13:25:06.113Z,21.06
2018-06-24T13:27:35.193Z,20.98
2018-06-24T13:30:08.087Z,20.92
2018-06-24T13:32:38.278Z,20.82
2018-06-24T13:35:08.749Z,20.65
2018-06-24T13:37:37.996Z,20.72
2018-06-24T13:40:08.115Z,20.85
2018-06-24T13:42:37.653Z,21.18
2018-06-24T13:45:08.684Z,20.93
2018-06-24T13:47:37.878Z,21.16
2018-06-24T13:50:09.190Z,21.29
2018-06-24T13:52:38.707Z,21.15
2018-06-24T13:55:08.382Z,20.69
2018-06-24T13:57:37.546Z,20.80
2018-06-24T14:00:08.707Z,20.69
2018-06-24T14:02:39.124Z,20.73
2018-06-24T14:05:09.065Z,21.10
2018-06-24T14:07:38.205Z,20.98
2018-06-24T14:10:08.522Z,20.78
2018-06-24T14:12:37.663Z,20.96
2018-06-24T14:15:06.900Z,20.95
2018-06-24T14:17:36.047Z,20.84
2018-06-24T14:20:06.932Z,20.88
2018-06-24T14:22:36.087Z,20.80
2018-06-24T14:25:06.391Z,20.53
2018-06-24T14:27:35.892Z,20.48
2018-06-24T14:30:06.924Z,20.54
2018-06-24T14:32:36.009Z,20.56
2018-06-24T14:35:05.054Z,20.52
2018-06-24T14:37:34.204Z,20.73
2018-06-24T14:40:06.759Z,20.88
2018-06-24T14:42:35.833Z,20.59
2018-06-24T14:45:05.031Z,21.10
2018-06-24T14:47:34.286Z,20.91
2018-06-24T14:50:07.696Z,20.95
2018-06-24T14:52:36.703Z,21.28
2018-06-24T14:55:05.688Z,21.08
2018-06-24T14:57:36.606Z,21.01
2018-06-24T15:00:07.233Z,20.90
2018-06-24T15:02:40.878Z,20.78
2018-06-24T15:05:10.940Z,20.68
2018-06-24T15:07:41.068Z,20.41
2018-06-24T15:10:10.954Z,20.36
2018-06-24T15:12:40.120Z,20.32
2018-06-24T15:15:09.247Z,20.37
2018-06-24T15:17:39.327Z,20.36
2018-06-24T15:20:08.691Z,20.32
2018-06-24T15:22:37.853Z,20.25
2018-06-24T15:25:07.846Z,20.25
2018-06-24T15:27:37.147Z,20.20
2018-06-24T15:30:07.615Z,20.16
2018-06-24T15:32:36.925Z,20.05
2018-06-24T15:35:05.960Z,19.89
2018-06-24T15:37:35.572Z,20.06
2018-06-24T15:40:07.797Z,19.97
2018-06-24T15:42:37.127Z,19.89
2018-06-24T15:45:06.246Z,19.96
2018-06-24T15:47:35.238Z,19.97
2018-06-24T15:50:08.382Z,19.82
2018-06-24T15:52:37.429Z,19.87
2018-06-24T15:55:06.790Z,19.67
2018-06-24T15:57:36.029Z,19.65
2018-06-24T16:00:08.936Z,19.66
2018-06-24T16:02:38.518Z,19.79
2018-06-24T16:05:07.996Z,19.59
2018-06-24T16:07:37.232Z,19.51
2018-06-24T16:10:07.790Z,19.52
2018-06-24T16:12:36.754Z,19.43
2018-06-24T16:15:06.322Z,19.66
2018-06-24T16:17:35.327Z,19.49
2018-06-24T16:20:07.446Z,19.42
2018-06-24T16:22:37.135Z,19.45
2018-06-24T16:25:07.281Z,19.20
2018-06-24T16:27:36.532Z,19.19
2018-06-24T16:30:10.215Z,19.16
2018-06-24T16:32:39.167Z,19.02
2018-06-24T16:35:08.233Z,19.26
2018-06-24T16:37:37.418Z,19.24
2018-06-24T16:40:07.865Z,19.10
2018-06-24T16:42:37.265Z,19.13
2018-06-24T16:45:06.748Z,19.09
2018-06-24T16:47:35.924Z,19.07
2018-06-24T16:50:08.463Z,19.08
2018-06-24T16:52:37.658Z,19.33
2018-06-24T16:55:07.500Z,19.26
2018-06-24T16:57:37.144Z,19.18
2018-06-24T17:00:07.869Z,19.28
2018-06-24T17:02:37.556Z,19.28
2018-06-24T17:05:06.533Z,19.00
2018-06-24T17:07:35.914Z,18.96
2018-06-24T17:10:08.407Z,19.02
2018-06-24T17:12:37.581Z,19.01
2018-06-24T17:15:06.688Z,19.01
2018-06-24T17:17:35.975Z,19.05
2018-06-24T17:20:09.438Z,19.05
2018-06-24T17:22:38.667Z,19.12
2018-06-24T17:25:08.047Z,18.95
2018-06-24T17:27:38.091Z,19.10
2018-06-24T17:30:07.860Z,19.14
2018-06-24T17:32:37.911Z,19.17
2018-06-24T17:35:07.471Z,19.16
2018-06-24T17:37:36.715Z,19.04
2018-06-24T17:40:07.709Z,19.04
2018-06-24T17:42:36.810Z,19.11
2018-06-24T17:45:06.076Z,18.90
2018-06-24T17:47:35.368Z,18.79
2018-06-24T17:50:08.974Z,18.79
2018-06-24T17:52:38.331Z,18.76
2018-06-24T17:55:07.585Z,18.79
2018-06-24T17:57:37.070Z,18.60
2018-06-24T18:00:09.133Z,18.56
2018-06-24T18:02:38.398Z,18.62
2018-06-24T18:05:07.746Z,18.62
2018-06-24T18:07:37.218Z,18.54
2018-06-24T18:10:07.615Z,18.34
2018-06-24T18:12:36.875Z,18.34
2018-06-24T18:15:06.400Z,16.00
2018-06-24T18:17:35.363Z,18.35
2018-06-24T18:20:08.464Z,18.30
2018-06-24T18:22:37.509Z,18.28
2018-06-24T18:25:06.699Z,17.98
2018-06-24T18:27:35.916Z,18.15
2018-06-24T18:30:09.035Z,18.01
2018-06-24T18:32:38.713Z,17.96
2018-06-24T18:35:08.104Z,18.00
2018-06-24T18:37:37.094Z,18.00
2018-06-24T18:40:08.091Z,18.02
2018-06-24T18:42:37.060Z,17.88
2018-06-24T18:45:06.583Z,17.85
2018-06-24T18:47:35.781Z,17.85
2018-06-24T18:50:08.035Z,17.84
2018-06-24T18:52:37.367Z,17.84
2018-06-24T18:55:06.603Z,17.98
2018-06-24T18:57:35.688Z,18.01
2018-06-24T19:00:08.439Z,17.88
2018-06-24T19:02:37.703Z,17.86
2018-06-24T19:05:06.943Z,17.92
2018-06-24T19:07:35.914Z,17.80
2018-06-24T19:10:08.554Z,17.78
2018-06-24T19:12:38.426Z,17.66
2018-06-24T19:15:07.714Z,17.67
2018-06-24T19:17:37.217Z,17.79
2018-06-24T19:20:07.263Z,17.73
2018-06-24T19:22:37.107Z,17.69
2018-06-24T19:25:07.127Z,17.67
2018-06-24T19:27:36.264Z,17.57
2018-06-24T19:30:08.478Z,17.71
2018-06-24T19:32:38.240Z,17.77
2018-06-24T19:35:07.486Z,17.60
2018-06-24T19:37:37.478Z,17.62
2018-06-24T19:40:07.922Z,17.62
2018-06-24T19:42:37.070Z,17.54
2018-06-24T19:45:06.299Z,17.46
2018-06-24T19:47:41.825Z,17.43
2018-06-24T19:50:10.828Z,17.42
2018-06-24T19:52:40.166Z,17.38
2018-06-24T19:55:09.613Z,17.26
2018-06-24T19:57:38.583Z,17.20
2018-06-24T20:00:07.981Z,17.23
2018-06-24T20:02:37.307Z,17.08
2018-06-24T20:05:06.893Z,17.19
2018-06-24T20:07:36.267Z,17.19
2018-06-24T20:10:07.327Z,17.15
2018-06-24T20:12:36.356Z,17.31
2018-06-24T20:15:06.956Z,17.37
2018-06-24T20:17:36.487Z,17.23
2018-06-24T20:20:08.272Z,17.27
2018-06-24T20:22:38.598Z,17.22
2018-06-24T20:25:08.048Z,17.28
2018-06-24T20:27:37.889Z,17.29
2018-06-24T20:30:07.927Z,17.31
2018-06-24T20:32:37.103Z,17.25
2018-06-24T20:35:06.983Z,17.26
2018-06-24T20:37:36.241Z,17.40
2018-06-24T20:40:07.413Z,17.40
2018-06-24T20:42:36.627Z,17.24
2018-06-24T20:45:06.559Z,17.19
2018-06-24T20:47:37.317Z,17.20
2018-06-24T20:50:07.845Z,17.25
2018-06-24T20:52:37.134Z,17.26
2018-06-24T20:55:06.406Z,17.39
2018-06-24T20:57:35.572Z,17.36
2018-06-24T21:00:08.278Z,17.28
2018-06-24T21:02:37.865Z,17.15
2018-06-24T21:05:06.943Z,17.06
2018-06-24T21:07:36.319Z,17.15
2018-06-24T21:10:09.375Z,17.24
2018-06-24T21:12:38.874Z,17.24
2018-06-24T21:15:08.335Z,17.12
2018-06-24T21:17:37.514Z,17.10
2018-06-24T21:20:08.610Z,17.21
2018-06-24T21:22:38.518Z,17.32
2018-06-24T21:25:07.814Z,17.14
2018-06-24T21:27:36.924Z,17.17
2018-06-24T21:30:07.842Z,17.11
2018-06-24T21:32:36.815Z,17.32
2018-06-24T21:35:06.278Z,17.18
2018-06-24T21:37:40.140Z,17.33
2018-06-24T21:40:12.070Z,17.25
2018-06-24T21:42:45.774Z,17.15
2018-06-24T21:45:20.819Z,17.14
2018-06-24T21:47:54.362Z,17.16
2018-06-24T21:50:26.733Z,17.15
2018-06-24T21:52:57.888Z,16.98
2018-06-24T21:55:28.225Z,17.14
2018-06-24T21:57:59.456Z,17.07
2018-06-24T22:00:30.458Z,17.07
2018-06-24T22:03:01.125Z,16.97
2018-06-24T22:05:30.396Z,16.90
2018-06-24T22:07:59.606Z,16.63
2018-06-24T22:10:28.695Z,16.54
2018-06-24T22:12:57.804Z,16.60
2018-06-24T22:15:27.335Z,16.58
2018-06-24T22:17:56.609Z,16.67
2018-06-24T22:20:25.699Z,16.51
2018-06-24T22:22:54.996Z,16.43
2018-06-24T22:25:24.655Z,16.38
2018-06-24T22:27:53.775Z,16.37
2018-06-24T22:30:22.894Z,16.50
2018-06-24T22:32:52.014Z,16.42
2018-06-24T22:35:21.123Z,16.60
2018-06-24T22:37:50.374Z,16.47
2018-06-24T22:40:19.880Z,16.41
2018-06-24T22:42:49.081Z,16.37
2018-06-24T22:45:18.289Z,16.30
2018-06-24T22:47:47.433Z,16.35
2018-06-24T22:50:16.850Z,16.52
2018-06-24T22:52:45.808Z,16.65
2018-06-24T22:55:14.942Z,16.56
2018-06-24T22:57:44.086Z,16.49
2018-06-24T23:00:16.767Z,16.34
2018-06-24T23:02:46.516Z,16.42
2018-06-24T23:05:15.759Z,16.43
2018-06-24T23:07:45.600Z,16.60
2018-06-24T23:10:15.106Z,16.59
2018-06-24T23:12:44.490Z,16.60
2018-06-24T23:15:13.661Z,16.68
2018-06-24T23:17:42.788Z,16.61
2018-06-24T23:20:12.104Z,16.41
2018-06-24T23:22:41.460Z,16.42
2018-06-24T23:25:11.024Z,16.39
2018-06-24T23:27:40.388Z,16.44
2018-06-24T23:30:09.563Z,16.40
2018-06-24T23:32:38.507Z,16.52
2018-06-24T23:35:07.687Z,16.47
2018-06-24T23:37:37.059Z,16.16
2018-06-24T23:40:07.310Z,16.38
2018-06-24T23:42:36.233Z,16.47
2018-06-24T23:45:05.325Z,16.48
2018-06-24T23:47:34.262Z,16.36
2018-06-24T23:50:06.531Z,16.39
2018-06-24T23:52:35.714Z,16.17
2018-06-24T23:55:05.479Z,16.29
2018-06-24T23:57:34.438Z,16.37
